Adamsons Peak, Australia
Current Conditions -  °F | °C
As of 7:30 PM on Sunday 23 Nov 2014 (Local Time) from YMHB Reporting Station
Broken Clouds Broken Clouds  
Wind Chill: 63°   Ceiling: 3200
Heat Index: 63°   Visibility: 6mi
Dew Point: 52°   Wind: 12mph
Humidity: 68%   Direction: 50°NE
Pressure: 29.83"   Gusts: NA
Location:  43.35°S, 146.8°E
Report Text: YMHB 230830Z 05010KT 9999 FEW020 BKN032 17/11 Q1010
Loading
Personal Weather Stations






























Interactive Weather Map New forecast layout! Learn more

10-Day Weather Forecast

Advertisements
Track Severe Weather on mobile